East Orchard Mesa, Colorado
Current Conditions -  °F | °C
As of 9:53 AM on Tuesday 27 Jan 2015 (Local Time) from KGJT Reporting Station
Clear Clear  
Wind Chill: 37°   Ceiling: Unl
Heat Index: 41°   Visibility: 10mi
Dew Point: 28°   Wind: 6mph
Humidity: 60%   Direction: 70°ENE
Pressure: 30.31"   Gusts: NA
Location:  39.0875°N, 108.348°W
Report Text: KGJT 271653Z 07005KT 10SM CLR 05/M02 A3031 RMK AO2 SLP268 T00501022
Loading
Personal Weather Stations






























Interactive Weather Map New forecast layout! Learn more

10-Day Weather Forecast

Advertisements
Track Severe Weather on mobile